sensor_id;sensor_type;location;lat;lon;timestamp;pressure;altitude;pressure_sealevel;temperature;humidity
50349;BME280;36250;48.740;22.174;2022-11-04T00:01:38;100347.72;;;6.30;100.00
50349;BME280;36250;48.740;22.174;2022-11-04T00:04:03;100350.72;;;6.35;100.00
50349;BME280;36250;48.740;22.174;2022-11-04T00:06:29;100339.56;;;6.42;100.00
50349;BME280;36250;48.740;22.174;2022-11-04T00:08:56;100344.50;;;6.45;100.00
50349;BME280;36250;48.740;22.174;2022-11-04T00:11:22;100340.88;;;6.46;100.00
50349;BME280;36250;48.740;22.174;2022-11-04T00:14:07;100340.09;;;6.54;100.00
50349;BME280;36250;48.740;22.174;2022-11-04T00:16:33;100333.00;;;6.62;100.00
50349;BME280;36250;48.740;22.174;2022-11-04T00:19:18;100346.38;;;6.69;100.00
50349;BME280;36250;48.740;22.174;2022-11-04T00:21:43;100338.00;;;6.74;100.00
50349;BME280;36250;48.740;22.174;2022-11-04T00:24:27;100327.78;;;6.79;100.00
50349;BME280;36250;48.740;22.174;2022-11-04T00:27:16;100319.91;;;6.79;100.00
50349;BME280;36250;48.740;22.174;2022-11-04T00:30:01;100321.69;;;6.78;100.00
50349;BME280;36250;48.740;22.174;2022-11-04T00:32:27;100325.78;;;6.73;100.00
50349;BME280;36250;48.740;22.174;2022-11-04T00:35:11;100320.19;;;6.67;100.00
50349;BME280;36250;48.740;22.174;2022-11-04T00:37:38;100321.19;;;6.66;100.00
50349;BME280;36250;48.740;22.174;2022-11-04T00:40:07;100314.44;;;6.64;100.00
50349;BME280;36250;48.740;22.174;2022-11-04T00:42:32;100309.00;;;6.65;100.00
50349;BME280;36250;48.740;22.174;2022-11-04T00:44:58;100303.75;;;6.65;100.00
50349;BME280;36250;48.740;22.174;2022-11-04T00:47:23;100301.75;;;6.67;100.00
50349;BME280;36250;48.740;22.174;2022-11-04T00:49:49;100296.34;;;6.69;100.00
50349;BME280;36250;48.740;22.174;2022-11-04T00:52:14;100291.41;;;6.74;100.00
50349;BME280;36250;48.740;22.174;2022-11-04T00:54:39;100298.66;;;6.80;100.00
50349;BME280;36250;48.740;22.174;2022-11-04T00:57:08;100288.63;;;6.84;100.00
50349;BME280;36250;48.740;22.174;2022-11-04T00:59:34;100289.28;;;6.86;100.00
50349;BME280;36250;48.740;22.174;2022-11-04T01:01:59;100290.59;;;6.90;100.00
50349;BME280;36250;48.740;22.174;2022-11-04T01:04:24;100290.28;;;6.93;100.00
50349;BME280;36250;48.740;22.174;2022-11-04T01:06:49;100281.91;;;6.98;100.00
50349;BME280;36250;48.740;22.174;2022-11-04T01:09:15;100282.22;;;6.95;100.00
50349;BME280;36250;48.740;22.174;2022-11-04T01:11:40;100283.38;;;6.92;100.00
50349;BME280;36250;48.740;22.174;2022-11-04T01:14:06;100275.13;;;6.87;100.00
50349;BME280;36250;48.740;22.174;2022-11-04T01:16:31;100268.56;;;6.83;100.00
50349;BME280;36250;48.740;22.174;2022-11-04T01:18:57;100258.31;;;6.72;100.00
50349;BME280;36250;48.740;22.174;2022-11-04T01:21:23;100260.63;;;6.66;100.00
50349;BME280;36250;48.740;22.174;2022-11-04T01:23:48;100247.47;;;6.66;100.00
50349;BME280;36250;48.740;22.174;2022-11-04T01:26:19;100241.56;;;6.64;100.00
50349;BME280;36250;48.740;22.174;2022-11-04T01:28:45;100251.75;;;6.59;100.00
50349;BME280;36250;48.740;22.174;2022-11-04T01:31:20;100240.22;;;6.52;100.00
50349;BME280;36250;48.740;22.174;2022-11-04T01:33:46;100230.84;;;6.49;100.00
50349;BME280;36250;48.740;22.174;2022-11-04T01:36:12;100217.69;;;6.49;100.00
50349;BME280;36250;48.740;22.174;2022-11-04T01:38:38;100210.13;;;6.46;100.00
50349;BME280;36250;48.740;22.174;2022-11-04T01:41:05;100210.31;;;6.45;100.00
50349;BME280;36250;48.740;22.174;2022-11-04T01:46:49;100197.81;;;6.38;100.00
50349;BME280;36250;48.740;22.174;2022-11-04T01:49:27;100197.47;;;6.42;100.00
50349;BME280;36250;48.740;22.174;2022-11-04T01:52:00;100182.69;;;6.41;100.00
50349;BME280;36250;48.740;22.174;2022-11-04T01:54:27;100186.78;;;6.43;100.00
50349;BME280;36250;48.740;22.174;2022-11-04T01:56:53;100177.75;;;6.46;100.00
50349;BME280;36250;48.740;22.174;2022-11-04T01:59:27;100180.19;;;6.47;100.00
50349;BME280;36250;48.740;22.174;2022-11-04T02:01:54;100169.34;;;6.50;100.00
50349;BME280;36250;48.740;22.174;2022-11-04T02:04:19;100161.78;;;6.56;100.00
50349;BME280;36250;48.740;22.174;2022-11-04T02:07:03;100159.97;;;6.56;100.00
50349;BME280;36250;48.740;22.174;2022-11-04T02:09:31;100163.91;;;6.60;100.00
50349;BME280;36250;48.740;22.174;2022-11-04T02:11:57;100154.69;;;6.64;100.00
50349;BME280;36250;48.740;22.174;2022-11-04T02:14:43;100148.75;;;6.71;100.00
50349;BME280;36250;48.740;22.174;2022-11-04T02:22:35;100129.34;;;6.72;100.00
50349;BME280;36250;48.740;22.174;2022-11-04T02:30:46;100119.47;;;6.82;100.00
50349;BME280;36250;48.740;22.174;2022-11-04T02:33:25;100114.34;;;6.89;100.00
50349;BME280;36250;48.740;22.174;2022-11-04T02:36:22;100122.09;;;6.90;100.00
50349;BME280;36250;48.740;22.174;2022-11-04T02:38:56;100122.56;;;6.86;100.00
50349;BME280;36250;48.740;22.174;2022-11-04T02:41:34;100116.69;;;6.75;100.00
50349;BME280;36250;48.740;22.174;2022-11-04T02:44:15;100119.81;;;6.71;100.00
50349;BME280;36250;48.740;22.174;2022-11-04T02:46:58;100117.19;;;6.62;100.00
50349;BME280;36250;48.740;22.174;2022-11-04T02:49:31;100113.59;;;6.55;100.00
50349;BME280;36250;48.740;22.174;2022-11-04T02:52:10;100113.44;;;6.57;100.00
50349;BME280;36250;48.740;22.174;2022-11-04T02:57:06;100103.72;;;6.49;100.00
50349;BME280;36250;48.740;22.174;2022-11-04T02:59:45;100104.53;;;6.49;100.00
50349;BME280;36250;48.740;22.174;2022-11-04T03:02:16;100101.75;;;6.51;100.00
50349;BME280;36250;48.740;22.174;2022-11-04T03:04:46;100110.16;;;6.55;100.00
50349;BME280;36250;48.740;22.174;2022-11-04T03:07:14;100108.50;;;6.54;100.00
50349;BME280;36250;48.740;22.174;2022-11-04T03:09:46;100099.78;;;6.53;100.00
50349;BME280;36250;48.740;22.174;2022-11-04T03:12:16;100102.91;;;6.57;100.00
50349;BME280;36250;48.740;22.174;2022-11-04T03:15:05;100098.28;;;6.59;100.00
50349;BME280;36250;48.740;22.174;2022-11-04T03:17:49;100104.88;;;6.63;100.00
50349;BME280;36250;48.740;22.174;2022-11-04T03:20:22;100104.53;;;6.66;100.00
50349;BME280;36250;48.740;22.174;2022-11-04T03:22:49;100107.47;;;6.71;100.00
50349;BME280;36250;48.740;22.174;2022-11-04T03:25:20;100103.69;;;6.74;100.00
50349;BME280;36250;48.740;22.174;2022-11-04T03:27:55;100101.72;;;6.76;100.00
50349;BME280;36250;48.740;22.174;2022-11-04T03:30:25;100101.53;;;6.77;100.00
50349;BME280;36250;48.740;22.174;2022-11-04T03:32:58;100105.66;;;6.80;100.00
50349;BME280;36250;48.740;22.174;2022-11-04T03:35:26;100104.34;;;6.84;100.00
50349;BME280;36250;48.740;22.174;2022-11-04T03:37:52;100097.72;;;6.88;100.00
50349;BME280;36250;48.740;22.174;2022-11-04T03:40:19;100103.66;;;6.90;100.00
50349;BME280;36250;48.740;22.174;2022-11-04T03:42:52;100095.75;;;6.90;100.00
50349;BME280;36250;48.740;22.174;2022-11-04T03:45:21;100095.41;;;6.93;100.00
50349;BME280;36250;48.740;22.174;2022-11-04T03:47:46;100098.03;;;6.93;100.00
50349;BME280;36250;48.740;22.174;2022-11-04T03:50:29;100103.63;;;6.99;100.00
50349;BME280;36250;48.740;22.174;2022-11-04T03:52:56;100099.66;;;7.03;100.00
50349;BME280;36250;48.740;22.174;2022-11-04T03:58:14;100086.59;;;7.18;100.00
50349;BME280;36250;48.740;22.174;2022-11-04T04:00:50;100087.91;;;7.22;100.00
50349;BME280;36250;48.740;22.174;2022-11-04T04:03:24;100082.13;;;7.27;100.00
50349;BME280;36250;48.740;22.174;2022-11-04T04:05:54;100082.44;;;7.32;100.00
50349;BME280;36250;48.740;22.174;2022-11-04T04:08:40;100086.19;;;7.37;100.00
50349;BME280;36250;48.740;22.174;2022-11-04T04:11:16;100077.28;;;7.38;100.00
50349;BME280;36250;48.740;22.174;2022-11-04T04:14:17;100080.72;;;7.39;100.00
50349;BME280;36250;48.740;22.174;2022-11-04T04:16:44;100080.44;;;7.34;100.00
50349;BME280;36250;48.740;22.174;2022-11-04T04:19:14;100066.63;;;7.32;100.00
50349;BME280;36250;48.740;22.174;2022-11-04T04:22:00;100063.84;;;7.25;100.00
50349;BME280;36250;48.740;22.174;2022-11-04T04:24:33;100064.19;;;7.22;100.00
50349;BME280;36250;48.740;22.174;2022-11-04T04:27:19;100061.75;;;7.20;100.00
50349;BME280;36250;48.740;22.174;2022-11-04T04:29:56;100067.00;;;7.20;100.00
50349;BME280;36250;48.740;22.174;2022-11-04T04:32:24;100074.91;;;7.20;100.00
50349;BME280;36250;48.740;22.174;2022-11-04T04:34:51;100071.78;;;7.17;100.00
50349;BME280;36250;48.740;22.174;2022-11-04T04:37:36;100069.84;;;7.10;100.00
50349;BME280;36250;48.740;22.174;2022-11-04T04:40:05;100075.25;;;7.09;100.00
50349;BME280;36250;48.740;22.174;2022-11-04T04:42:51;100073.31;;;7.03;100.00
50349;BME280;36250;48.740;22.174;2022-11-04T04:45:37;100059.69;;;6.99;100.00
50349;BME280;36250;48.740;22.174;2022-11-04T04:48:07;100061.19;;;6.93;100.00
50349;BME280;36250;48.740;22.174;2022-11-04T04:50:39;100060.34;;;6.93;100.00
50349;BME280;36250;48.740;22.174;2022-11-04T04:53:06;100061.34;;;6.92;100.00
50349;BME280;36250;48.740;22.174;2022-11-04T04:55:31;100064.84;;;6.84;100.00
50349;BME280;36250;48.740;22.174;2022-11-04T04:57:57;100058.09;;;6.81;100.00
50349;BME280;36250;48.740;22.174;2022-11-04T05:00:23;100052.00;;;6.73;100.00
50349;BME280;36250;48.740;22.174;2022-11-04T05:02:49;100052.38;;;6.61;100.00
50349;BME280;36250;48.740;22.174;2022-11-04T05:05:14;100059.47;;;6.52;100.00
50349;BME280;36250;48.740;22.174;2022-11-04T05:07:40;100055.06;;;6.45;100.00
50349;BME280;36250;48.740;22.174;2022-11-04T05:10:07;100055.88;;;6.37;100.00
50349;BME280;36250;48.740;22.174;2022-11-04T05:12:35;100040.75;;;6.39;100.00
50349;BME280;36250;48.740;22.174;2022-11-04T05:15:19;100048.50;;;6.41;100.00
50349;BME280;36250;48.740;22.174;2022-11-04T05:17:45;100055.88;;;6.45;100.00
50349;BME280;36250;48.740;22.174;2022-11-04T05:20:11;100043.03;;;6.50;100.00
50349;BME280;36250;48.740;22.174;2022-11-04T05:22:36;100055.69;;;6.55;100.00
50349;BME280;36250;48.740;22.174;2022-11-04T05:25:01;100048.44;;;6.57;100.00
50349;BME280;36250;48.740;22.174;2022-11-04T05:27:27;100061.44;;;6.59;100.00
50349;BME280;36250;48.740;22.174;2022-11-04T05:29:52;100055.34;;;6.58;100.00
50349;BME280;36250;48.740;22.174;2022-11-04T05:32:17;100044.50;;;6.61;100.00
50349;BME280;36250;48.740;22.174;2022-11-04T05:34:43;100037.25;;;6.63;100.00
50349;BME280;36250;48.740;22.174;2022-11-04T05:37:08;100047.28;;;6.68;100.00
50349;BME280;36250;48.740;22.174;2022-11-04T05:39:33;100050.38;;;6.72;100.00
50349;BME280;36250;48.740;22.174;2022-11-04T05:41:59;100047.63;;;6.65;100.00
50349;BME280;36250;48.740;22.174;2022-11-04T05:44:25;100049.13;;;6.51;100.00
50349;BME280;36250;48.740;22.174;2022-11-04T05:46:50;100051.09;;;6.49;100.00
50349;BME280;36250;48.740;22.174;2022-11-04T05:49:15;100045.66;;;6.50;100.00
50349;BME280;36250;48.740;22.174;2022-11-04T05:51:41;100048.81;;;6.46;100.00
50349;BME280;36250;48.740;22.174;2022-11-04T05:54:06;100038.41;;;6.52;100.00
50349;BME280;36250;48.740;22.174;2022-11-04T05:56:31;100042.38;;;6.57;100.00
50349;BME280;36250;48.740;22.174;2022-11-04T05:58:57;100034.28;;;6.66;100.00
50349;BME280;36250;48.740;22.174;2022-11-04T06:03:54;100028.59;;;6.94;100.00
50349;BME280;36250;48.740;22.174;2022-11-04T06:06:20;100012.25;;;7.07;100.00
50349;BME280;36250;48.740;22.174;2022-11-04T06:08:46;100022.91;;;7.14;100.00
50349;BME280;36250;48.740;22.174;2022-11-04T06:11:11;100022.69;;;7.24;100.00
50349;BME280;36250;48.740;22.174;2022-11-04T06:13:37;100022.63;;;7.32;100.00
50349;BME280;36250;48.740;22.174;2022-11-04T06:16:02;100014.56;;;7.34;100.00
50349;BME280;36250;48.740;22.174;2022-11-04T06:18:28;100026.53;;;7.45;100.00
50349;BME280;36250;48.740;22.174;2022-11-04T06:23:33;100045.31;;;7.42;100.00
50349;BME280;36250;48.740;22.174;2022-11-04T06:25:59;100045.44;;;7.48;100.00
50349;BME280;36250;48.740;22.174;2022-11-04T06:28:24;100057.31;;;7.44;100.00
50349;BME280;36250;48.740;22.174;2022-11-04T06:30:50;100048.31;;;7.38;100.00
50349;BME280;36250;48.740;22.174;2022-11-04T06:33:15;100041.78;;;7.49;100.00
50349;BME280;36250;48.740;22.174;2022-11-04T06:35:40;100038.44;;;7.64;100.00
50349;BME280;36250;48.740;22.174;2022-11-04T06:38:05;100025.53;;;7.69;100.00
50349;BME280;36250;48.740;22.174;2022-11-04T06:40:31;100034.38;;;7.76;100.00
50349;BME280;36250;48.740;22.174;2022-11-04T06:42:56;100042.41;;;7.83;100.00
50349;BME280;36250;48.740;22.174;2022-11-04T06:45:21;100033.50;;;7.84;100.00
50349;BME280;36250;48.740;22.174;2022-11-04T06:47:47;100033.97;;;7.88;100.00
50349;BME280;36250;48.740;22.174;2022-11-04T06:50:12;100027.28;;;8.00;100.00
50349;BME280;36250;48.740;22.174;2022-11-04T06:52:38;100029.13;;;8.15;100.00
50349;BME280;36250;48.740;22.174;2022-11-04T06:55:04;100025.00;;;8.12;100.00
50349;BME280;36250;48.740;22.174;2022-11-04T06:57:30;100028.03;;;8.24;100.00
50349;BME280;36250;48.740;22.174;2022-11-04T06:59:55;100022.50;;;8.34;100.00
50349;BME280;36250;48.740;22.174;2022-11-04T07:02:20;100022.25;;;8.44;100.00
50349;BME280;36250;48.740;22.174;2022-11-04T07:04:46;100018.81;;;8.58;100.00
50349;BME280;36250;48.740;22.174;2022-11-04T07:07:11;100013.09;;;8.69;100.00
50349;BME280;36250;48.740;22.174;2022-11-04T07:09:36;100010.63;;;8.83;100.00
50349;BME280;36250;48.740;22.174;2022-11-04T07:12:02;100003.25;;;8.93;100.00
50349;BME280;36250;48.740;22.174;2022-11-04T07:14:28;100008.41;;;9.02;100.00
50349;BME280;36250;48.740;22.174;2022-11-04T07:16:53;99989.38;;;9.06;100.00
50349;BME280;36250;48.740;22.174;2022-11-04T07:19:18;99995.41;;;9.00;100.00
50349;BME280;36250;48.740;22.174;2022-11-04T07:21:44;100004.41;;;8.91;100.00
50349;BME280;36250;48.740;22.174;2022-11-04T07:24:09;100005.78;;;8.87;100.00
50349;BME280;36250;48.740;22.174;2022-11-04T07:26:34;100002.78;;;8.75;100.00
50349;BME280;36250;48.740;22.174;2022-11-04T07:29:00;100007.00;;;8.84;100.00
50349;BME280;36250;48.740;22.174;2022-11-04T07:31:26;100005.44;;;8.75;100.00
50349;BME280;36250;48.740;22.174;2022-11-04T07:33:52;100000.44;;;8.80;100.00
50349;BME280;36250;48.740;22.174;2022-11-04T07:36:18;99996.97;;;8.79;100.00
50349;BME280;36250;48.740;22.174;2022-11-04T07:38:44;99993.44;;;8.72;100.00
50349;BME280;36250;48.740;22.174;2022-11-04T07:41:10;99992.06;;;8.76;100.00
50349;BME280;36250;48.740;22.174;2022-11-04T07:43:35;99980.63;;;8.91;100.00
50349;BME280;36250;48.740;22.174;2022-11-04T07:46:05;99975.69;;;9.03;100.00
50349;BME280;36250;48.740;22.174;2022-11-04T07:48:31;99970.22;;;9.19;100.00
50349;BME280;36250;48.740;22.174;2022-11-04T07:50:58;99959.75;;;9.33;100.00
50349;BME280;36250;48.740;22.174;2022-11-04T07:53:25;99962.53;;;9.46;100.00
50349;BME280;36250;48.740;22.174;2022-11-04T07:55:51;99955.34;;;9.62;100.00
50349;BME280;36250;48.740;22.174;2022-11-04T07:58:21;99954.22;;;9.71;100.00
50349;BME280;36250;48.740;22.174;2022-11-04T08:00:46;99951.25;;;9.81;100.00
50349;BME280;36250;48.740;22.174;2022-11-04T08:03:11;99946.81;;;9.88;100.00
50349;BME280;36250;48.740;22.174;2022-11-04T08:05:37;99952.72;;;9.90;100.00
50349;BME280;36250;48.740;22.174;2022-11-04T08:08:02;99951.97;;;9.75;100.00
50349;BME280;36250;48.740;22.174;2022-11-04T08:10:28;99948.28;;;9.69;100.00
50349;BME280;36250;48.740;22.174;2022-11-04T08:12:54;99944.44;;;9.71;100.00
50349;BME280;36250;48.740;22.174;2022-11-04T08:15:19;99937.00;;;9.82;100.00
50349;BME280;36250;48.740;22.174;2022-11-04T08:17:44;99937.88;;;9.89;100.00
50349;BME280;36250;48.740;22.174;2022-11-04T08:20:10;99940.16;;;9.99;100.00
50349;BME280;36250;48.740;22.174;2022-11-04T08:22:36;99939.59;;;10.04;100.00
50349;BME280;36250;48.740;22.174;2022-11-04T08:25:01;99949.78;;;10.07;100.00
50349;BME280;36250;48.740;22.174;2022-11-04T08:27:26;99943.13;;;10.18;100.00
50349;BME280;36250;48.740;22.174;2022-11-04T08:29:52;99947.66;;;10.24;100.00
50349;BME280;36250;48.740;22.174;2022-11-04T08:32:17;99949.63;;;10.15;100.00
50349;BME280;36250;48.740;22.174;2022-11-04T08:34:43;99951.31;;;10.23;100.00
50349;BME280;36250;48.740;22.174;2022-11-04T08:37:08;99942.97;;;10.26;100.00
50349;BME280;36250;48.740;22.174;2022-11-04T08:39:34;99945.84;;;10.24;100.00
50349;BME280;36250;48.740;22.174;2022-11-04T08:41:59;99949.34;;;10.38;100.00
50349;BME280;36250;48.740;22.174;2022-11-04T08:44:25;99942.31;;;10.46;100.00
50349;BME280;36250;48.740;22.174;2022-11-04T08:46:50;99944.63;;;10.62;100.00
50349;BME280;36250;48.740;22.174;2022-11-04T08:49:15;99941.53;;;10.52;100.00
50349;BME280;36250;48.740;22.174;2022-11-04T08:51:44;99949.19;;;10.40;100.00
50349;BME280;36250;48.740;22.174;2022-11-04T08:54:11;99949.69;;;10.57;100.00
50349;BME280;36250;48.740;22.174;2022-11-04T08:56:38;99945.28;;;10.71;100.00
50349;BME280;36250;48.740;22.174;2022-11-04T08:59:04;99946.28;;;10.77;100.00
50349;BME280;36250;48.740;22.174;2022-11-04T09:01:32;99943.09;;;10.88;100.00
50349;BME280;36250;48.740;22.174;2022-11-04T09:03:58;99939.03;;;10.99;100.00
50349;BME280;36250;48.740;22.174;2022-11-04T09:06:27;99935.97;;;10.95;100.00
50349;BME280;36250;48.740;22.174;2022-11-04T09:08:53;99931.69;;;10.94;100.00
50349;BME280;36250;48.740;22.174;2022-11-04T09:11:27;99923.94;;;10.99;100.00
50349;BME280;36250;48.740;22.174;2022-11-04T09:13:52;99916.63;;;11.01;100.00
50349;BME280;36250;48.740;22.174;2022-11-04T09:16:17;99914.59;;;11.10;100.00
50349;BME280;36250;48.740;22.174;2022-11-04T09:18:43;99912.78;;;11.24;100.00
50349;BME280;36250;48.740;22.174;2022-11-04T09:21:09;99915.25;;;11.33;100.00
50349;BME280;36250;48.740;22.174;2022-11-04T09:23:35;99913.00;;;11.43;100.00
50349;BME280;36250;48.740;22.174;2022-11-04T09:26:12;99910.16;;;11.38;100.00
50349;BME280;36250;48.740;22.174;2022-11-04T09:28:39;99908.28;;;11.38;100.00
50349;BME280;36250;48.740;22.174;2022-11-04T09:31:09;99896.50;;;11.48;100.00
50349;BME280;36250;48.740;22.174;2022-11-04T09:33:35;99898.94;;;11.63;100.00
50349;BME280;36250;48.740;22.174;2022-11-04T09:36:01;99894.25;;;11.65;100.00
50349;BME280;36250;48.740;22.174;2022-11-04T09:38:26;99895.88;;;11.66;100.00
50349;BME280;36250;48.740;22.174;2022-11-04T09:40:52;99890.97;;;11.69;100.00
50349;BME280;36250;48.740;22.174;2022-11-04T09:43:29;99881.16;;;11.77;100.00
50349;BME280;36250;48.740;22.174;2022-11-04T09:45:57;99888.09;;;11.84;100.00
50349;BME280;36250;48.740;22.174;2022-11-04T09:48:33;99893.78;;;11.95;100.00
50349;BME280;36250;48.740;22.174;2022-11-04T09:51:03;99894.81;;;12.07;100.00
50349;BME280;36250;48.740;22.174;2022-11-04T09:53:37;99886.81;;;12.27;100.00
50349;BME280;36250;48.740;22.174;2022-11-04T09:56:32;99885.28;;;12.45;100.00
50349;BME280;36250;48.740;22.174;2022-11-04T09:59:01;99871.56;;;12.55;100.00
50349;BME280;36250;48.740;22.174;2022-11-04T10:01:36;99877.66;;;12.62;100.00
50349;BME280;36250;48.740;22.174;2022-11-04T10:10:38;99849.44;;;13.25;100.00
50349;BME280;36250;48.740;22.174;2022-11-04T10:13:21;99837.34;;;13.29;100.00
50349;BME280;36250;48.740;22.174;2022-11-04T10:26:45;99806.38;;;14.16;100.00
50349;BME280;36250;48.740;22.174;2022-11-04T10:29:15;99808.75;;;14.25;100.00
50349;BME280;36250;48.740;22.174;2022-11-04T10:31:42;99808.47;;;14.45;100.00
50349;BME280;36250;48.740;22.174;2022-11-04T10:34:36;99801.31;;;14.57;100.00
50349;BME280;36250;48.740;22.174;2022-11-04T10:37:08;99803.06;;;14.63;100.00
50349;BME280;36250;48.740;22.174;2022-11-04T10:39:41;99795.09;;;14.63;100.00
50349;BME280;36250;48.740;22.174;2022-11-04T10:42:10;99781.81;;;14.75;100.00
50349;BME280;36250;48.740;22.174;2022-11-04T10:44:37;99783.25;;;14.90;100.00
50349;BME280;36250;48.740;22.174;2022-11-04T10:47:25;99780.13;;;14.93;100.00
50349;BME280;36250;48.740;22.174;2022-11-04T10:52:23;99768.88;;;14.91;98.00
50349;BME280;36250;48.740;22.174;2022-11-04T10:54:49;99762.84;;;14.96;100.00
50349;BME280;36250;48.740;22.174;2022-11-04T10:57:23;99759.59;;;15.05;96.71
50349;BME280;36250;48.740;22.174;2022-11-04T10:59:52;99754.97;;;15.13;95.47
50349;BME280;36250;48.740;22.174;2022-11-04T11:02:41;99748.25;;;15.10;96.68
50349;BME280;36250;48.740;22.174;2022-11-04T11:07:43;99741.06;;;15.11;94.51
50349;BME280;36250;48.740;22.174;2022-11-04T11:12:57;99734.63;;;15.59;94.04
50349;BME280;36250;48.740;22.174;2022-11-04T11:17:49;99732.84;;;15.77;92.30
50349;BME280;36250;48.740;22.174;2022-11-04T11:20:21;99725.50;;;15.96;90.01
50349;BME280;36250;48.740;22.174;2022-11-04T11:22:48;99715.75;;;15.90;88.85
50349;BME280;36250;48.740;22.174;2022-11-04T11:25:32;99718.88;;;15.46;89.03
50349;BME280;36250;48.740;22.174;2022-11-04T11:28:02;99717.38;;;15.26;92.29
50349;BME280;36250;48.740;22.174;2022-11-04T11:33:02;99705.13;;;15.13;91.32
50349;BME280;36250;48.740;22.174;2022-11-04T11:35:34;99698.59;;;15.09;93.90
50349;BME280;36250;48.740;22.174;2022-11-04T11:38:14;99692.69;;;15.07;95.45
50349;BME280;36250;48.740;22.174;2022-11-04T11:40:43;99695.81;;;15.04;94.78
50349;BME280;36250;48.740;22.174;2022-11-04T11:43:20;99696.88;;;15.03;94.75
50349;BME280;36250;48.740;22.174;2022-11-04T11:45:48;99703.25;;;15.14;95.74
50349;BME280;36250;48.740;22.174;2022-11-04T11:48:38;99703.34;;;15.31;95.10
50349;BME280;36250;48.740;22.174;2022-11-04T11:51:05;99696.75;;;15.33;94.06
50349;BME280;36250;48.740;22.174;2022-11-04T11:53:31;99692.47;;;15.20;92.87
50349;BME280;36250;48.740;22.174;2022-11-04T11:56:14;99690.25;;;15.17;94.29
50349;BME280;36250;48.740;22.174;2022-11-04T11:58:50;99688.03;;;15.26;94.16
50349;BME280;36250;48.740;22.174;2022-11-04T12:03:52;99673.13;;;15.54;93.34
50349;BME280;36250;48.740;22.174;2022-11-04T12:11:59;99672.44;;;15.59;94.33
50349;BME280;36250;48.740;22.174;2022-11-04T12:17:43;99675.59;;;15.44;93.80
50349;BME280;36250;48.740;22.174;2022-11-04T12:24:02;99654.31;;;15.61;89.46
50349;BME280;36250;48.740;22.174;2022-11-04T12:29:51;99649.09;;;16.80;84.64
50349;BME280;36250;48.740;22.174;2022-11-04T12:32:37;99640.09;;;17.04;83.21
50349;BME280;36250;48.740;22.174;2022-11-04T12:40:28;99639.34;;;17.08;84.22
50349;BME280;36250;48.740;22.174;2022-11-04T12:51:07;99642.94;;;17.36;85.44
50349;BME280;36250;48.740;22.174;2022-11-04T12:56:36;99647.13;;;17.32;87.23
50349;BME280;36250;48.740;22.174;2022-11-04T13:02:29;99646.78;;;17.23;88.12
50349;BME280;36250;48.740;22.174;2022-11-04T13:07:38;99629.84;;;16.27;91.89
50349;BME280;36250;48.740;22.174;2022-11-04T13:10:15;99633.50;;;16.21;92.57
50349;BME280;36250;48.740;22.174;2022-11-04T13:12:43;99633.47;;;16.04;94.37
50349;BME280;36250;48.740;22.174;2022-11-04T13:15:19;99634.63;;;16.08;95.38
50349;BME280;36250;48.740;22.174;2022-11-04T13:17:49;99634.72;;;16.13;91.02
50349;BME280;36250;48.740;22.174;2022-11-04T13:20:31;99630.31;;;16.07;92.96
50349;BME280;36250;48.740;22.174;2022-11-04T13:23:03;99634.84;;;15.77;95.61
50349;BME280;36250;48.740;22.174;2022-11-04T13:25:41;99636.53;;;15.67;97.08
50349;BME280;36250;48.740;22.174;2022-11-04T13:28:12;99631.31;;;15.72;97.22
50349;BME280;36250;48.740;22.174;2022-11-04T13:30:45;99628.78;;;15.94;98.42
50349;BME280;36250;48.740;22.174;2022-11-04T13:33:24;99620.00;;;16.28;95.44
50349;BME280;36250;48.740;22.174;2022-11-04T13:36:29;99614.41;;;16.12;93.13
50349;BME280;36250;48.740;22.174;2022-11-04T13:39:22;99612.50;;;15.96;92.91
50349;BME280;36250;48.740;22.174;2022-11-04T13:44:29;99616.22;;;15.65;95.42
50349;BME280;36250;48.740;22.174;2022-11-04T13:47:01;99616.00;;;15.67;96.64
50349;BME280;36250;48.740;22.174;2022-11-04T13:49:30;99624.69;;;15.62;97.18
50349;BME280;36250;48.740;22.174;2022-11-04T13:52:09;99625.22;;;15.88;99.17
50349;BME280;36250;48.740;22.174;2022-11-04T13:54:53;99621.38;;;16.13;96.46
50349;BME280;36250;48.740;22.174;2022-11-04T13:57:26;99625.66;;;16.14;94.01
50349;BME280;36250;48.740;22.174;2022-11-04T14:08:11;99601.44;;;16.21;98.78
50349;BME280;36250;48.740;22.174;2022-11-04T14:16:11;99607.50;;;14.76;100.00
50349;BME280;36250;48.740;22.174;2022-11-04T14:18:56;99609.44;;;14.57;100.00
50349;BME280;36250;48.740;22.174;2022-11-04T14:21:26;99605.50;;;14.48;100.00
50349;BME280;36250;48.740;22.174;2022-11-04T14:23:53;99599.81;;;14.44;100.00
50349;BME280;36250;48.740;22.174;2022-11-04T14:26:24;99595.75;;;14.30;100.00
50349;BME280;36250;48.740;22.174;2022-11-04T14:29:08;99603.97;;;14.16;100.00
50349;BME280;36250;48.740;22.174;2022-11-04T14:31:39;99606.75;;;14.10;100.00
50349;BME280;36250;48.740;22.174;2022-11-04T14:34:06;99603.13;;;14.04;100.00
50349;BME280;36250;48.740;22.174;2022-11-04T14:36:46;99612.16;;;13.91;100.00
50349;BME280;36250;48.740;22.174;2022-11-04T14:41:55;99606.53;;;13.81;100.00
50349;BME280;36250;48.740;22.174;2022-11-04T14:44:31;99598.66;;;13.74;100.00
50349;BME280;36250;48.740;22.174;2022-11-04T14:47:15;99590.38;;;13.64;100.00
50349;BME280;36250;48.740;22.174;2022-11-04T14:50:05;99583.44;;;13.51;100.00
50349;BME280;36250;48.740;22.174;2022-11-04T14:52:37;99591.53;;;13.37;100.00
50349;BME280;36250;48.740;22.174;2022-11-04T14:57:37;99592.22;;;13.14;100.00